sensor_id;sensor_type;location;lat;lon;timestamp;pressure;altitude;pressure_sealevel;temperature;humidity
45941;BME280;31858;46.008;8.978;2023-03-14T00:01:58;93690.34;;;7.61;100.00
45941;BME280;31858;46.008;8.978;2023-03-14T00:12:00;93662.34;;;7.70;100.00
45941;BME280;31858;46.008;8.978;2023-03-14T00:22:04;93632.00;;;7.57;100.00
45941;BME280;31858;46.008;8.978;2023-03-14T00:32:06;93581.22;;;7.44;100.00
45941;BME280;31858;46.008;8.978;2023-03-14T00:42:09;93559.28;;;7.47;100.00
45941;BME280;31858;46.008;8.978;2023-03-14T00:52:11;93547.91;;;7.50;100.00
45941;BME280;31858;46.008;8.978;2023-03-14T01:02:14;93558.50;;;7.43;100.00
45941;BME280;31858;46.008;8.978;2023-03-14T01:12:15;93542.63;;;7.47;100.00
45941;BME280;31858;46.008;8.978;2023-03-14T01:22:18;93501.75;;;7.62;100.00
45941;BME280;31858;46.008;8.978;2023-03-14T01:32:21;93494.94;;;7.75;100.00
45941;BME280;31858;46.008;8.978;2023-03-14T01:42:25;93469.94;;;7.55;100.00
45941;BME280;31858;46.008;8.978;2023-03-14T01:52:29;93432.81;;;7.59;100.00
45941;BME280;31858;46.008;8.978;2023-03-14T02:02:37;93399.13;;;7.63;100.00
45941;BME280;31858;46.008;8.978;2023-03-14T02:12:40;93383.59;;;7.54;100.00
45941;BME280;31858;46.008;8.978;2023-03-14T02:22:45;93425.25;;;7.57;100.00
45941;BME280;31858;46.008;8.978;2023-03-14T02:32:51;93449.47;;;7.56;100.00
45941;BME280;31858;46.008;8.978;2023-03-14T02:42:53;93419.91;;;7.22;100.00
45941;BME280;31858;46.008;8.978;2023-03-14T02:52:56;93385.06;;;7.02;100.00
45941;BME280;31858;46.008;8.978;2023-03-14T03:02:58;93350.63;;;7.02;100.00
45941;BME280;31858;46.008;8.978;2023-03-14T03:13:01;93329.03;;;6.89;100.00
45941;BME280;31858;46.008;8.978;2023-03-14T03:23:03;93344.56;;;6.87;100.00
45941;BME280;31858;46.008;8.978;2023-03-14T03:33:06;93331.72;;;7.00;100.00
45941;BME280;31858;46.008;8.978;2023-03-14T03:43:08;93299.53;;;6.91;100.00
45941;BME280;31858;46.008;8.978;2023-03-14T03:53:11;93311.63;;;6.74;100.00
45941;BME280;31858;46.008;8.978;2023-03-14T04:03:12;93326.00;;;6.76;100.00
45941;BME280;31858;46.008;8.978;2023-03-14T04:13:15;93321.44;;;6.70;100.00
45941;BME280;31858;46.008;8.978;2023-03-14T04:23:17;93302.91;;;6.63;100.00
45941;BME280;31858;46.008;8.978;2023-03-14T04:33:19;93296.47;;;6.60;100.00
45941;BME280;31858;46.008;8.978;2023-03-14T04:43:21;93316.16;;;6.66;100.00
45941;BME280;31858;46.008;8.978;2023-03-14T04:53:24;93310.47;;;6.64;100.00
45941;BME280;31858;46.008;8.978;2023-03-14T05:03:26;93292.69;;;6.65;100.00
45941;BME280;31858;46.008;8.978;2023-03-14T05:13:29;93287.41;;;6.61;100.00
45941;BME280;31858;46.008;8.978;2023-03-14T05:23:30;93140.69;;;6.55;100.00
45941;BME280;31858;46.008;8.978;2023-03-14T05:33:33;93071.19;;;6.33;100.00
45941;BME280;31858;46.008;8.978;2023-03-14T05:43:35;93112.00;;;6.36;100.00
45941;BME280;31858;46.008;8.978;2023-03-14T05:53:38;93192.88;;;6.33;100.00
45941;BME280;31858;46.008;8.978;2023-03-14T06:03:39;93202.69;;;6.15;100.00
45941;BME280;31858;46.008;8.978;2023-03-14T06:13:42;93251.03;;;6.12;100.00
45941;BME280;31858;46.008;8.978;2023-03-14T06:23:44;93270.69;;;6.21;100.00
45941;BME280;31858;46.008;8.978;2023-03-14T06:33:47;93238.97;;;6.29;100.00
45941;BME280;31858;46.008;8.978;2023-03-14T06:43:48;93255.97;;;6.28;100.00
45941;BME280;31858;46.008;8.978;2023-03-14T06:53:51;93225.38;;;6.30;100.00
45941;BME280;31858;46.008;8.978;2023-03-14T07:03:53;93225.00;;;6.32;100.00
45941;BME280;31858;46.008;8.978;2023-03-14T07:13:57;93235.63;;;6.49;100.00
45941;BME280;31858;46.008;8.978;2023-03-14T07:23:58;93221.59;;;6.52;100.00
45941;BME280;31858;46.008;8.978;2023-03-14T07:34:01;93233.72;;;6.50;100.00
45941;BME280;31858;46.008;8.978;2023-03-14T07:44:03;93269.25;;;6.56;100.00
45941;BME280;31858;46.008;8.978;2023-03-14T07:54:06;93270.38;;;6.59;100.00
45941;BME280;31858;46.008;8.978;2023-03-14T08:04:07;93297.59;;;6.63;100.00
45941;BME280;31858;46.008;8.978;2023-03-14T08:14:10;93324.84;;;6.70;100.00
45941;BME280;31858;46.008;8.978;2023-03-14T08:24:12;93316.16;;;6.77;100.00
45941;BME280;31858;46.008;8.978;2023-03-14T08:34:15;93312.38;;;6.78;100.00
45941;BME280;31858;46.008;8.978;2023-03-14T08:44:16;93296.13;;;6.86;100.00
45941;BME280;31858;46.008;8.978;2023-03-14T08:54:19;93297.28;;;6.96;100.00
45941;BME280;31858;46.008;8.978;2023-03-14T09:04:21;93299.94;;;7.10;100.00
45941;BME280;31858;46.008;8.978;2023-03-14T09:14:24;93303.72;;;7.20;100.00
45941;BME280;31858;46.008;8.978;2023-03-14T09:24:26;93285.94;;;7.20;100.00
45941;BME280;31858;46.008;8.978;2023-03-14T09:34:29;93274.94;;;7.33;100.00
45941;BME280;31858;46.008;8.978;2023-03-14T09:44:32;93264.72;;;7.38;100.00
45941;BME280;31858;46.008;8.978;2023-03-14T09:54:38;93262.78;;;7.60;100.00
45941;BME280;31858;46.008;8.978;2023-03-14T10:04:40;93299.50;;;7.65;100.00
45941;BME280;31858;46.008;8.978;2023-03-14T10:14:47;93260.13;;;7.57;100.00
45941;BME280;31858;46.008;8.978;2023-03-14T10:24:52;93257.06;;;7.76;100.00
45941;BME280;31858;46.008;8.978;2023-03-14T10:35:18;93228.50;;;8.08;100.00
45941;BME280;31858;46.008;8.978;2023-03-14T10:45:32;93223.81;;;8.37;100.00
45941;BME280;31858;46.008;8.978;2023-03-14T10:55:42;93232.59;;;8.86;100.00
45941;BME280;31858;46.008;8.978;2023-03-14T11:05:46;93233.09;;;9.15;100.00
45941;BME280;31858;46.008;8.978;2023-03-14T11:16:13;93229.84;;;9.41;100.00
45941;BME280;31858;46.008;8.978;2023-03-14T11:26:26;93214.53;;;9.87;100.00
45941;BME280;31858;46.008;8.978;2023-03-14T11:36:36;93175.88;;;9.78;100.00
45941;BME280;31858;46.008;8.978;2023-03-14T11:46:41;93165.63;;;9.77;100.00
45941;BME280;31858;46.008;8.978;2023-03-14T11:56:50;93159.06;;;9.85;100.00
45941;BME280;31858;46.008;8.978;2023-03-14T12:06:56;93124.44;;;9.89;100.00
45941;BME280;31858;46.008;8.978;2023-03-14T12:17:05;93104.13;;;10.29;100.00
45941;BME280;31858;46.008;8.978;2023-03-14T12:27:13;93095.56;;;10.64;100.00
45941;BME280;31858;46.008;8.978;2023-03-14T12:37:37;93066.13;;;10.95;100.00
45941;BME280;31858;46.008;8.978;2023-03-14T12:47:53;93061.69;;;11.28;100.00
45941;BME280;31858;46.008;8.978;2023-03-14T12:57:57;93057.94;;;11.45;100.00
45941;BME280;31858;46.008;8.978;2023-03-14T13:08:09;93031.59;;;11.47;100.00
45941;BME280;31858;46.008;8.978;2023-03-14T13:18:13;93021.06;;;11.76;100.00
45941;BME280;31858;46.008;8.978;2023-03-14T13:28:16;92992.25;;;11.87;100.00
45941;BME280;31858;46.008;8.978;2023-03-14T13:38:22;92990.19;;;11.75;100.00
45941;BME280;31858;46.008;8.978;2023-03-14T13:48:26;92993.06;;;11.84;100.00
45941;BME280;31858;46.008;8.978;2023-03-14T13:58:31;92992.50;;;11.93;100.00
45941;BME280;31858;46.008;8.978;2023-03-14T14:08:33;92997.44;;;12.11;100.00
45941;BME280;31858;46.008;8.978;2023-03-14T14:18:37;93013.03;;;12.28;100.00
45941;BME280;31858;46.008;8.978;2023-03-14T14:28:38;93017.53;;;12.31;100.00
45941;BME280;31858;46.008;8.978;2023-03-14T14:38:42;92999.84;;;12.21;100.00
45941;BME280;31858;46.008;8.978;2023-03-14T14:48:43;93001.09;;;12.00;100.00
45941;BME280;31858;46.008;8.978;2023-03-14T14:58:56;93004.56;;;11.65;100.00
45941;BME280;31858;46.008;8.978;2023-03-14T15:08:58;93010.06;;;11.38;100.00
45941;BME280;31858;46.008;8.978;2023-03-14T15:19:05;93014.88;;;11.27;100.00
45941;BME280;31858;46.008;8.978;2023-03-14T15:29:11;93015.34;;;11.22;100.00
45941;BME280;31858;46.008;8.978;2023-03-14T15:39:14;93016.31;;;11.11;100.00
45941;BME280;31858;46.008;8.978;2023-03-14T15:49:15;93027.72;;;11.12;100.00
45941;BME280;31858;46.008;8.978;2023-03-14T15:59:18;93037.22;;;11.13;100.00
45941;BME280;31858;46.008;8.978;2023-03-14T16:09:20;93045.28;;;11.09;100.00
45941;BME280;31858;46.008;8.978;2023-03-14T16:19:25;93045.50;;;10.99;100.00
45941;BME280;31858;46.008;8.978;2023-03-14T16:29:28;93056.91;;;10.99;100.00
45941;BME280;31858;46.008;8.978;2023-03-14T16:39:31;93041.41;;;11.14;100.00
45941;BME280;31858;46.008;8.978;2023-03-14T16:49:33;93041.88;;;11.29;100.00
45941;BME280;31858;46.008;8.978;2023-03-14T16:59:36;93058.47;;;11.56;89.35
45941;BME280;31858;46.008;8.978;2023-03-14T17:09:38;93088.81;;;11.82;75.75
45941;BME280;31858;46.008;8.978;2023-03-14T17:19:41;93098.22;;;11.51;55.00
45941;BME280;31858;46.008;8.978;2023-03-14T17:29:42;93099.91;;;11.21;45.87
45941;BME280;31858;46.008;8.978;2023-03-14T17:39:45;93126.88;;;11.03;40.79
45941;BME280;31858;46.008;8.978;2023-03-14T17:49:47;93137.66;;;10.96;38.48
45941;BME280;31858;46.008;8.978;2023-03-14T17:59:50;93151.91;;;10.86;36.81
45941;BME280;31858;46.008;8.978;2023-03-14T18:09:52;93147.53;;;10.76;36.65
45941;BME280;31858;46.008;8.978;2023-03-14T18:19:55;93159.44;;;10.68;37.14
45941;BME280;31858;46.008;8.978;2023-03-14T18:29:57;93179.34;;;10.60;37.79
45941;BME280;31858;46.008;8.978;2023-03-14T18:40:00;93211.56;;;10.42;38.53
45941;BME280;31858;46.008;8.978;2023-03-14T18:50:05;93217.00;;;10.35;37.79
45941;BME280;31858;46.008;8.978;2023-03-14T19:00:10;93233.84;;;10.28;38.88
45941;BME280;31858;46.008;8.978;2023-03-14T19:10:13;93236.69;;;10.10;39.15
45941;BME280;31858;46.008;8.978;2023-03-14T19:20:16;93252.63;;;10.14;39.38
45941;BME280;31858;46.008;8.978;2023-03-14T19:30:18;93253.13;;;10.02;39.40
45941;BME280;31858;46.008;8.978;2023-03-14T19:40:22;93274.19;;;9.89;40.90
45941;BME280;31858;46.008;8.978;2023-03-14T19:50:24;93279.88;;;9.50;43.17
45941;BME280;31858;46.008;8.978;2023-03-14T20:00:28;93288.69;;;9.43;43.41
45941;BME280;31858;46.008;8.978;2023-03-14T20:10:30;93294.81;;;9.37;44.00
45941;BME280;31858;46.008;8.978;2023-03-14T20:20:33;93324.09;;;9.33;41.34
45941;BME280;31858;46.008;8.978;2023-03-14T20:30:34;93323.69;;;9.35;41.71
45941;BME280;31858;46.008;8.978;2023-03-14T20:40:37;93331.28;;;9.36;38.35
45941;BME280;31858;46.008;8.978;2023-03-14T20:50:39;93355.06;;;9.54;36.64
45941;BME280;31858;46.008;8.978;2023-03-14T21:00:46;93366.09;;;9.53;34.43
45941;BME280;31858;46.008;8.978;2023-03-14T21:10:48;93342.94;;;9.49;34.14
45941;BME280;31858;46.008;8.978;2023-03-14T21:20:53;93385.50;;;9.46;33.08
45941;BME280;31858;46.008;8.978;2023-03-14T21:31:02;93412.88;;;9.43;33.15
45941;BME280;31858;46.008;8.978;2023-03-14T21:41:05;93420.16;;;9.32;34.73
45941;BME280;31858;46.008;8.978;2023-03-14T21:51:07;93435.44;;;9.21;36.25
45941;BME280;31858;46.008;8.978;2023-03-14T22:01:10;93446.91;;;9.07;36.55
45941;BME280;31858;46.008;8.978;2023-03-14T22:11:12;93469.38;;;8.92;36.78
45941;BME280;31858;46.008;8.978;2023-03-14T22:21:15;93467.50;;;8.85;37.72
45941;BME280;31858;46.008;8.978;2023-03-14T22:31:16;93483.81;;;8.83;36.44
45941;BME280;31858;46.008;8.978;2023-03-14T22:41:19;93490.28;;;8.75;35.41
45941;BME280;31858;46.008;8.978;2023-03-14T22:51:21;93504.72;;;8.67;32.33
45941;BME280;31858;46.008;8.978;2023-03-14T23:01:24;93516.88;;;8.65;29.48
45941;BME280;31858;46.008;8.978;2023-03-14T23:11:26;93540.41;;;8.56;30.24
45941;BME280;31858;46.008;8.978;2023-03-14T23:21:29;93546.50;;;8.45;31.26
45941;BME280;31858;46.008;8.978;2023-03-14T23:31:31;93566.97;;;8.34;31.12
45941;BME280;31858;46.008;8.978;2023-03-14T23:41:34;93577.97;;;8.36;31.08
45941;BME280;31858;46.008;8.978;2023-03-14T23:51:36;93603.00;;;8.35;30.69
